Time;durP1;ratioP1;P1;durP2;ratioP2;P2;SDS_P1;SDS_P2;PMS_P1;PMS_P2;Temp;Humidity;BMP_temperature;BMP_pressure;BME280_temperature;BME280_humidity;BME280_pressure;Samples;Min_cycle;Max_cycle;Signal;HPM_P1;HPM_P2
2022/01/17 00:00:16;;;;;;;11.25;1.63;;;4.50;99.90;;;;;;5054114;28;20083;-78
2022/01/17 00:02:42;;;;;;;16.67;2.88;;;4.60;99.90;;;;;;5054859;28;20127;-81
2022/01/17 00:05:09;;;;;;;13.40;1.88;;;4.50;99.90;;;;;;5054333;28;20040;-81
2022/01/17 00:07:36;;;;;;;10.82;1.08;;;4.60;99.90;;;;;;5054996;28;20048;-80
2022/01/17 00:10:03;;;;;;;24.42;2.45;;;4.60;99.90;;;;;;5070674;28;20048;-81
2022/01/17 00:12:31;;;;;;;25.92;2.67;;;4.60;99.90;;;;;;5071261;28;20052;-81
2022/01/17 00:14:57;;;;;;;15.88;2.35;;;4.60;99.90;;;;;;5070913;28;20048;-81
2022/01/17 00:17:30;;;;;;;9.25;1.10;;;4.60;99.90;;;;;;5071125;28;20044;-78
2022/01/17 00:19:57;;;;;;;12.70;2.42;;;4.60;99.90;;;;;;5054715;28;20117;-78
2022/01/17 00:22:23;;;;;;;8.65;1.77;;;4.60;99.90;;;;;;5054617;28;20059;-80
2022/01/17 00:24:54;;;;;;;12.75;2.00;;;4.70;99.90;;;;;;5071004;28;20032;-80
2022/01/17 00:27:19;;;;;;;21.00;2.35;;;4.70;99.90;;;;;;5054446;28;20045;-80
2022/01/17 00:29:45;;;;;;;16.60;2.25;;;4.60;99.90;;;;;;5054432;28;20060;-81
2022/01/17 00:32:11;;;;;;;11.98;2.28;;;4.60;99.90;;;;;;5053879;28;20127;-81
2022/01/17 00:34:37;;;;;;;10.77;2.10;;;4.60;99.90;;;;;;5037518;28;20390;-79
2022/01/17 00:37:02;;;;;;;14.07;1.98;;;4.60;99.90;;;;;;5017850;28;20454;-80
2022/01/17 00:39:28;;;;;;;10.10;1.85;;;4.60;99.90;;;;;;5060097;28;20403;-79
2022/01/17 00:41:54;;;;;;;5.43;1.35;;;4.60;99.90;;;;;;5021613;28;20041;-79
2022/01/17 00:44:21;;;;;;;14.60;2.22;;;4.60;99.90;;;;;;5053383;28;20067;-79
2022/01/17 00:46:49;;;;;;;11.60;1.65;;;4.60;99.90;;;;;;5054525;28;20396;-79
2022/01/17 00:49:14;;;;;;;14.73;2.35;;;4.80;99.90;;;;;;5071460;28;20102;-81
2022/01/17 00:51:40;;;;;;;14.98;3.28;;;4.60;99.90;;;;;;5053727;28;20040;-81
2022/01/17 00:54:06;;;;;;;14.23;1.42;;;4.40;99.90;;;;;;5054557;28;20123;-79
2022/01/17 00:56:31;;;;;;;12.43;2.45;;;4.30;99.90;;;;;;5037893;28;20049;-79
2022/01/17 00:58:57;;;;;;;10.60;2.72;;;4.30;99.90;;;;;;5070571;28;20045;-78
2022/01/17 01:01:23;;;;;;;13.95;2.22;;;4.20;99.90;;;;;;5053908;28;20044;-81
2022/01/17 01:03:49;;;;;;;17.92;2.75;;;4.30;99.90;;;;;;5070320;28;20059;-81
2022/01/17 01:06:15;;;;;;;10.57;1.63;;;4.30;99.90;;;;;;5017723;28;20132;-79
2022/01/17 01:08:40;;;;;;;22.13;2.95;;;4.30;99.90;;;;;;5035675;28;20547;-81
2022/01/17 01:11:06;;;;;;;14.63;2.08;;;4.30;99.90;;;;;;5070940;28;20245;-81
2022/01/17 01:13:32;;;;;;;13.35;1.73;;;4.30;99.90;;;;;;5056283;28;20506;-81
2022/01/17 01:19:05;;;;;;;13.05;1.67;;;4.30;99.90;;;;;;5073815;28;20178;-81
2022/01/17 01:29:13;;;;;;;9.63;2.05;;;4.40;99.90;;;;;;5074363;28;20055;-79
2022/01/17 01:31:53;;;;;;;16.20;1.92;;;4.40;99.90;;;;;;5040913;28;20044;-79
2022/01/17 01:34:27;;;;;;;12.52;2.30;;;4.30;99.90;;;;;;5059651;28;20052;-79
2022/01/17 01:36:53;;;;;;;7.00;1.73;;;4.30;99.90;;;;;;5074257;28;20048;-81
2022/01/17 01:39:23;;;;;;;13.77;1.60;;;4.30;99.90;;;;;;5040777;28;20057;-81
2022/01/17 01:41:50;;;;;;;12.48;2.08;;;4.40;99.90;;;;;;5074468;28;20375;-81
2022/01/17 01:44:21;;;;;;;17.77;3.13;;;4.50;99.90;;;;;;5073538;28;20176;-82
2022/01/17 01:46:48;;;;;;;10.13;2.88;;;4.40;99.90;;;;;;5074028;28;20064;-81
2022/01/17 01:49:16;;;;;;;7.55;1.63;;;4.30;99.90;;;;;;5057757;28;20044;-79
2022/01/17 01:51:42;;;;;;;18.23;2.33;;;4.40;99.90;;;;;;5057129;28;20032;-79
2022/01/17 01:54:09;;;;;;;13.02;2.17;;;4.30;99.90;;;;;;5074155;28;20124;-79
2022/01/17 01:56:40;;;;;;;13.95;1.77;;;4.50;99.90;;;;;;5073792;28;20052;-80
2022/01/17 01:59:06;;;;;;;13.68;1.52;;;4.30;99.90;;;;;;5056874;28;20045;-81
2022/01/17 02:01:32;;;;;;;6.82;1.10;;;4.40;99.90;;;;;;5040489;28;20079;-81
2022/01/17 02:03:58;;;;;;;21.80;1.95;;;4.50;99.90;;;;;;5073630;28;20048;-80
2022/01/17 02:06:24;;;;;;;25.52;2.10;;;4.20;99.90;;;;;;5074117;28;20518;-81
2022/01/17 02:08:50;;;;;;;11.90;1.83;;;4.20;99.90;;;;;;5056627;28;20119;-79
2022/01/17 02:11:16;;;;;;;24.38;3.05;;;4.10;99.90;;;;;;5023620;28;20071;-79
2022/01/17 02:13:43;;;;;;;5.25;1.35;;;4.10;99.90;;;;;;5056880;28;20048;-79
2022/01/17 02:16:12;;;;;;;16.08;1.58;;;4.10;99.90;;;;;;5056742;28;20063;-81
2022/01/17 02:18:40;;;;;;;9.43;1.52;;;4.10;99.90;;;;;;5056910;28;20044;-81
2022/01/17 02:23:41;;;;;;;15.68;2.03;;;4.10;99.90;;;;;;5072755;28;20388;-79
2022/01/17 02:26:08;;;;;;;6.53;1.67;;;4.10;99.90;;;;;;5056289;28;20059;-79
2022/01/17 02:28:35;;;;;;;10.20;2.05;;;4.10;99.90;;;;;;5056614;28;20040;-82
2022/01/17 02:31:05;;;;;;;12.13;2.13;;;4.20;99.90;;;;;;5056269;28;20040;-80
2022/01/17 02:33:32;;;;;;;12.80;2.40;;;4.20;99.90;;;;;;5072649;28;20410;-81
2022/01/17 02:35:59;;;;;;;11.75;2.20;;;4.30;99.90;;;;;;5055416;28;20484;-79
2022/01/17 02:38:25;;;;;;;9.98;1.42;;;4.40;99.90;;;;;;5073176;28;20403;-81
2022/01/17 02:40:51;;;;;;;8.75;1.50;;;4.50;99.90;;;;;;5072617;28;20040;-80
2022/01/17 02:43:18;;;;;;;15.38;2.63;;;4.60;99.90;;;;;;5056232;28;20044;-81
2022/01/17 02:48:20;;;;;;;15.25;2.88;;;4.70;99.90;;;;;;5067429;28;20049;-80
2022/01/17 02:50:46;;;;;;;7.30;2.25;;;4.70;99.90;;;;;;5056147;28;20041;-81
2022/01/17 02:53:12;;;;;;;14.82;2.30;;;4.70;99.90;;;;;;5055943;28;20044;-80
2022/01/17 02:55:53;;;;;;;13.95;1.40;;;4.80;99.90;;;;;;5056227;28;20036;-81
2022/01/17 02:58:21;;;;;;;11.38;1.45;;;4.70;99.90;;;;;;5072629;28;20067;-81
2022/01/17 03:00:49;;;;;;;16.95;1.75;;;4.80;99.90;;;;;;5071976;28;20045;-81
2022/01/17 03:03:16;;;;;;;15.82;2.72;;;4.70;99.90;;;;;;5072764;28;20133;-82
2022/01/17 03:05:42;;;;;;;13.13;1.98;;;4.70;99.90;;;;;;5071927;28;20048;-80
2022/01/17 03:08:08;;;;;;;26.70;1.85;;;4.80;99.90;;;;;;5072496;28;20048;-81
2022/01/17 03:10:40;;;;;;;9.48;1.70;;;4.80;99.90;;;;;;5055474;28;20047;-80
2022/01/17 03:13:12;;;;;;;5.05;0.90;;;4.70;99.90;;;;;;5055633;28;20047;-82
2022/01/17 03:15:39;;;;;;;17.53;3.27;;;4.80;99.90;;;;;;5055366;28;20509;-81
2022/01/17 03:18:05;;;;;;;14.65;2.17;;;4.70;99.90;;;;;;5056031;28;20494;-81
2022/01/17 03:20:34;;;;;;;13.98;2.22;;;4.80;99.90;;;;;;5072137;28;20040;-80
2022/01/17 03:23:00;;;;;;;20.20;2.75;;;4.70;99.90;;;;;;5055716;28;20567;-80
2022/01/17 03:25:26;;;;;;;16.17;2.92;;;4.80;99.90;;;;;;5072417;28;20406;-80
2022/01/17 03:27:52;;;;;;;15.32;1.40;;;4.90;99.90;;;;;;5055390;28;20564;-80
2022/01/17 03:30:18;;;;;;;19.70;3.80;;;4.90;99.90;;;;;;5055042;28;20111;-81
2022/01/17 03:32:44;;;;;;;14.50;2.53;;;4.90;99.90;;;;;;5072134;28;20076;-79
2022/01/17 03:35:10;;;;;;;5.78;1.13;;;5.00;99.90;;;;;;5071158;28;20062;-82
2022/01/17 03:37:36;;;;;;;10.20;2.13;;;5.00;99.90;;;;;;5071288;28;20075;-82
2022/01/17 03:40:03;;;;;;;10.77;1.42;;;5.10;99.90;;;;;;5072154;28;20125;-82
2022/01/17 03:42:29;;;;;;;16.42;2.60;;;5.10;99.90;;;;;;5071856;28;20048;-81
2022/01/17 03:44:55;;;;;;;20.95;1.85;;;5.20;99.90;;;;;;5071789;28;20542;-80
2022/01/17 03:47:21;;;;;;;12.18;2.20;;;5.30;99.90;;;;;;5071268;28;20131;-81
2022/01/17 03:49:46;;;;;;;7.07;1.98;;;5.10;99.90;;;;;;5055688;28;20071;-80
2022/01/17 03:52:12;;;;;;;26.58;3.25;;;5.20;99.90;;;;;;5054827;28;20044;-80
2022/01/17 03:54:38;;;;;;;10.85;2.00;;;5.40;99.90;;;;;;5071704;28;20083;-80
2022/01/17 03:57:04;;;;;;;11.05;1.50;;;5.40;99.90;;;;;;5054618;28;20068;-82
2022/01/17 03:59:29;;;;;;;15.73;1.88;;;5.20;99.90;;;;;;5035446;28;20132;-79
2022/01/17 04:01:55;;;;;;;13.07;1.98;;;5.20;99.90;;;;;;5070455;28;20483;-81
2022/01/17 04:04:21;;;;;;;7.60;1.55;;;5.10;99.90;;;;;;5070879;28;20041;-82
2022/01/17 04:06:46;;;;;;;8.55;1.30;;;5.10;99.90;;;;;;5071496;28;20068;-82
2022/01/17 04:09:12;;;;;;;7.50;1.25;;;5.00;99.90;;;;;;5071305;28;20051;-82
2022/01/17 04:11:38;;;;;;;15.20;3.10;;;4.90;99.90;;;;;;5054644;28;20106;-82
2022/01/17 04:14:09;;;;;;;16.98;2.38;;;5.00;99.90;;;;;;5071681;28;20090;-82
2022/01/17 04:16:35;;;;;;;11.77;2.42;;;5.00;99.90;;;;;;5071250;28;20048;-81
2022/01/17 04:19:01;;;;;;;14.15;3.22;;;5.10;99.90;;;;;;5054495;28;20103;-82
2022/01/17 04:21:33;;;;;;;9.10;1.52;;;5.10;99.90;;;;;;5038556;28;20044;-82
2022/01/17 04:23:58;;;;;;;7.78;1.63;;;5.20;99.90;;;;;;5054676;28;20044;-81
2022/01/17 04:26:26;;;;;;;8.55;1.55;;;5.20;99.90;;;;;;5018281;28;20084;-80
2022/01/17 04:28:51;;;;;;;10.77;1.63;;;5.30;99.90;;;;;;5035236;28;20063;-81
2022/01/17 04:31:17;;;;;;;6.53;0.90;;;5.40;99.90;;;;;;5062493;28;20040;-82
2022/01/17 04:33:43;;;;;;;23.00;2.33;;;5.50;99.90;;;;;;5054044;28;20102;-82
2022/01/17 04:36:09;;;;;;;10.98;2.60;;;5.50;99.90;;;;;;5034484;28;20128;-82
2022/01/17 04:38:35;;;;;;;13.68;2.22;;;5.50;99.90;;;;;;5066607;28;20098;-81
2022/01/17 04:41:05;;;;;;;17.42;2.00;;;5.60;99.90;;;;;;5070708;28;20040;-81
2022/01/17 04:46:04;;;;;;;14.48;2.22;;;5.60;99.90;;;;;;5071029;28;20048;-82
2022/01/17 04:48:30;;;;;;;9.02;2.10;;;5.60;99.90;;;;;;5036313;28;20040;-81
2022/01/17 04:50:56;;;;;;;16.55;2.80;;;5.70;99.90;;;;;;5037401;28;20048;-82
2022/01/17 04:53:22;;;;;;;12.13;2.70;;;5.80;99.90;;;;;;5053859;28;20051;-82
2022/01/17 04:55:48;;;;;;;9.52;2.10;;;5.80;99.90;;;;;;5070515;28;20079;-83
2022/01/17 04:58:14;;;;;;;16.85;2.10;;;5.80;99.90;;;;;;5071554;28;20440;-81
2022/01/17 05:00:46;;;;;;;11.70;2.30;;;5.90;99.90;;;;;;5070014;28;20041;-82
2022/01/17 05:03:20;;;;;;;12.50;2.38;;;5.80;99.90;;;;;;5065136;28;20045;-81
2022/01/17 05:05:46;;;;;;;12.15;2.55;;;5.90;99.90;;;;;;5071066;28;20044;-82
2022/01/17 05:08:12;;;;;;;8.75;1.65;;;5.90;99.90;;;;;;5053471;28;20056;-80
2022/01/17 05:10:38;;;;;;;12.68;2.33;;;5.90;99.90;;;;;;5036954;28;20033;-81
2022/01/17 05:13:05;;;;;;;20.30;2.58;;;5.90;99.90;;;;;;5071142;28;20099;-82
2022/01/17 05:15:37;;;;;;;10.73;2.22;;;6.00;99.90;;;;;;5070439;28;20097;-83
2022/01/17 05:18:24;;;;;;;15.95;1.80;;;5.90;99.90;;;;;;5054718;28;20056;-82
2022/01/17 05:20:50;;;;;;;20.55;2.53;;;6.00;99.90;;;;;;5070494;28;20068;-81
2022/01/17 05:23:16;;;;;;;17.05;3.90;;;6.00;99.90;;;;;;5071292;28;20495;-81
2022/01/17 05:25:42;;;;;;;13.23;2.35;;;6.00;99.90;;;;;;5053724;28;20046;-81
2022/01/17 05:28:08;;;;;;;12.40;2.30;;;5.90;99.90;;;;;;5070322;28;20052;-82
2022/01/17 05:30:34;;;;;;;16.15;2.05;;;5.90;99.90;;;;;;5069856;28;20131;-80
2022/01/17 05:32:59;;;;;;;17.70;3.22;;;5.90;99.90;;;;;;5053338;28;20040;-81
2022/01/17 05:35:25;;;;;;;10.13;2.58;;;5.90;99.90;;;;;;5053537;28;20071;-82
2022/01/17 05:37:51;;;;;;;14.88;2.03;;;5.90;99.90;;;;;;5070261;28;20103;-80
2022/01/17 05:40:17;;;;;;;19.92;3.15;;;6.00;99.90;;;;;;5070147;28;20450;-81
2022/01/17 05:42:44;;;;;;;14.00;2.45;;;5.90;99.90;;;;;;5053471;28;20549;-80
2022/01/17 05:45:12;;;;;;;15.85;2.90;;;5.90;99.90;;;;;;5070832;28;20052;-82
2022/01/17 05:47:38;;;;;;;14.55;2.28;;;5.90;99.90;;;;;;5070441;28;20036;-80
2022/01/17 05:50:05;;;;;;;15.85;2.20;;;5.90;99.90;;;;;;5070531;28;20048;-82
2022/01/17 05:52:31;;;;;;;13.25;2.92;;;5.90;99.90;;;;;;5070344;28;20506;-82
2022/01/17 05:54:59;;;;;;;15.23;2.85;;;5.90;99.90;;;;;;5070435;28;20076;-80
2022/01/17 05:57:25;;;;;;;22.65;3.63;;;5.80;99.90;;;;;;5053748;28;20040;-80
2022/01/17 05:59:51;;;;;;;13.27;3.03;;;5.70;99.90;;;;;;5056561;28;20119;-83
2022/01/17 06:02:17;;;;;;;17.15;2.50;;;5.60;99.90;;;;;;5073363;28;20060;-80
2022/01/17 06:04:43;;;;;;;12.75;2.50;;;5.60;99.90;;;;;;5057258;28;20040;-82
2022/01/17 06:07:09;;;;;;;12.60;2.88;;;5.60;99.90;;;;;;5073612;28;20044;-81
2022/01/17 06:09:35;;;;;;;12.50;2.67;;;5.70;99.90;;;;;;5057137;28;20052;-82
2022/01/17 06:12:02;;;;;;;15.27;2.40;;;5.70;99.90;;;;;;5073338;28;20048;-79
2022/01/17 06:14:29;;;;;;;11.65;2.75;;;5.60;99.90;;;;;;5072894;28;20052;-82
2022/01/17 06:16:55;;;;;;;11.60;2.92;;;5.60;99.90;;;;;;5056331;28;20037;-82
2022/01/17 06:19:21;;;;;;;9.95;3.17;;;5.70;99.90;;;;;;5057289;28;20067;-82
2022/01/17 06:21:47;;;;;;;21.60;3.00;;;5.60;99.90;;;;;;5073985;28;20040;-82
2022/01/17 06:24:13;;;;;;;13.23;2.90;;;5.60;99.90;;;;;;5056651;28;20037;-80
2022/01/17 06:26:40;;;;;;;21.17;3.63;;;5.60;99.90;;;;;;5072855;28;20045;-82
2022/01/17 06:29:08;;;;;;;16.33;3.47;;;5.60;99.90;;;;;;5057066;28;20048;-79
2022/01/17 06:31:35;;;;;;;12.73;2.38;;;5.50;99.90;;;;;;5072776;28;20526;-81
2022/01/17 06:34:01;;;;;;;17.90;2.67;;;5.60;99.90;;;;;;5073556;28;20048;-80
2022/01/17 06:36:27;;;;;;;19.48;3.25;;;5.60;99.90;;;;;;5072551;28;20041;-80
2022/01/17 06:38:52;;;;;;;22.10;3.53;;;5.60;99.90;;;;;;5073221;28;20044;-80
2022/01/17 06:41:18;;;;;;;11.00;1.95;;;5.60;99.90;;;;;;5056210;28;20048;-81
2022/01/17 06:43:45;;;;;;;13.93;2.92;;;5.60;99.90;;;;;;5056958;28;20494;-79
2022/01/17 06:46:11;;;;;;;26.73;3.47;;;5.80;99.90;;;;;;5072644;28;20138;-82
2022/01/17 06:48:37;;;;;;;16.50;2.58;;;5.60;99.90;;;;;;5056168;28;20032;-79
2022/01/17 06:51:03;;;;;;;23.95;3.53;;;5.70;99.90;;;;;;5056475;28;20097;-82
2022/01/17 06:53:29;;;;;;;36.90;4.53;;;5.60;99.90;;;;;;5072751;28;20048;-81
2022/01/17 06:55:56;;;;;;;25.35;3.40;;;5.60;99.90;;;;;;5040322;28;20507;-79
2022/01/17 06:58:22;;;;;;;15.30;2.38;;;5.60;99.90;;;;;;5055973;28;20083;-81
2022/01/17 07:00:48;;;;;;;23.35;4.03;;;5.70;99.90;;;;;;5072871;28;20398;-82
2022/01/17 07:03:14;;;;;;;20.42;3.55;;;5.70;99.90;;;;;;5072294;28;20055;-79
2022/01/17 07:05:40;;;;;;;18.75;2.95;;;5.70;99.90;;;;;;5072924;28;20044;-80
2022/01/17 07:08:06;;;;;;;22.83;4.05;;;5.80;99.90;;;;;;5056072;28;20044;-81
2022/01/17 07:10:31;;;;;;;33.50;4.88;;;5.80;99.90;;;;;;5071620;28;20418;-80
2022/01/17 07:12:57;;;;;;;25.50;3.70;;;5.80;99.90;;;;;;5072155;28;20068;-80
2022/01/17 07:15:23;;;;;;;23.25;3.25;;;5.90;99.90;;;;;;5071775;28;20040;-82
2022/01/17 07:17:49;;;;;;;28.50;4.38;;;5.90;99.90;;;;;;5072660;28;20044;-80
2022/01/17 07:20:15;;;;;;;21.40;3.38;;;5.90;99.90;;;;;;5055559;28;20052;-82
2022/01/17 07:22:41;;;;;;;17.17;3.33;;;6.10;99.90;;;;;;5055764;28;20395;-81
2022/01/17 07:25:07;;;;;;;26.75;4.40;;;6.10;99.90;;;;;;5056042;28;20060;-82
2022/01/17 07:27:33;;;;;;;32.25;4.88;;;6.10;99.90;;;;;;5071887;28;20064;-79
2022/01/17 07:29:59;;;;;;;23.60;4.43;;;6.00;99.90;;;;;;5055968;28;20499;-80
2022/01/17 07:32:26;;;;;;;22.77;3.30;;;6.00;99.90;;;;;;5027606;28;20057;-80
2022/01/17 07:34:52;;;;;;;21.73;4.63;;;6.10;99.90;;;;;;5029296;28;20075;-80
2022/01/17 07:37:19;;;;;;;20.92;4.40;;;6.10;99.90;;;;;;5043535;28;20490;-82
2022/01/17 07:39:44;;;;;;;31.17;5.57;;;6.10;99.90;;;;;;5071807;28;20047;-79
2022/01/17 07:42:10;;;;;;;19.50;2.85;;;6.20;99.90;;;;;;5071488;28;20036;-82
2022/01/17 07:44:39;;;;;;;32.60;5.05;;;6.20;99.90;;;;;;5071334;28;20040;-81
2022/01/17 07:47:06;;;;;;;22.25;4.53;;;6.30;99.90;;;;;;5071499;28;20044;-80
2022/01/17 07:49:32;;;;;;;20.48;3.38;;;6.30;99.90;;;;;;5070549;28;20489;-80
2022/01/17 07:52:05;;;;;;;23.45;3.33;;;6.40;99.90;;;;;;5055082;28;20064;-81
2022/01/17 07:54:33;;;;;;;24.88;4.05;;;6.40;99.90;;;;;;5071399;28;20045;-82
2022/01/17 07:57:00;;;;;;;34.60;3.78;;;6.60;99.90;;;;;;5071412;28;20174;-81
2022/01/17 07:59:26;;;;;;;19.15;3.40;;;6.60;99.90;;;;;;5070843;28;20371;-80
2022/01/17 08:01:52;;;;;;;21.00;3.67;;;6.60;99.90;;;;;;5070771;28;20044;-82
2022/01/17 08:04:18;;;;;;;24.55;4.32;;;6.70;99.90;;;;;;5071508;28;20044;-79
2022/01/17 08:06:46;;;;;;;26.20;4.25;;;6.80;99.90;;;;;;5053869;28;20548;-80
2022/01/17 08:09:15;;;;;;;34.47;4.38;;;6.80;99.90;;;;;;5040167;28;20045;-82
2022/01/17 08:11:41;;;;;;;28.60;4.50;;;6.80;99.90;;;;;;5071183;28;20087;-80
2022/01/17 08:14:07;;;;;;;25.58;4.15;;;6.90;99.90;;;;;;5054525;28;20086;-80
2022/01/17 08:16:33;;;;;;;39.83;6.03;;;6.90;99.90;;;;;;5054307;28;20044;-79
2022/01/17 08:18:58;;;;;;;30.60;5.43;;;7.00;99.90;;;;;;5053320;28;20072;-79
2022/01/17 08:21:24;;;;;;;31.33;4.50;;;7.00;99.90;;;;;;5037867;28;20036;-81
2022/01/17 08:23:53;;;;;;;26.77;5.05;;;7.00;99.90;;;;;;5071488;28;20422;-82
2022/01/17 08:26:20;;;;;;;22.83;4.18;;;7.10;99.90;;;;;;5070777;28;20123;-79
2022/01/17 08:28:46;;;;;;;22.13;4.82;;;7.20;99.90;;;;;;5070546;28;20053;-79
2022/01/17 08:31:12;;;;;;;24.02;4.63;;;7.10;99.90;;;;;;5071058;28;20044;-79
2022/01/17 08:33:37;;;;;;;20.90;3.97;;;7.30;99.90;;;;;;5037162;28;20054;-79
2022/01/17 08:36:04;;;;;;;36.83;5.75;;;7.20;99.90;;;;;;5037559;28;20036;-80
2022/01/17 08:38:30;;;;;;;31.60;4.95;;;7.20;99.90;;;;;;5070815;28;20079;-81
2022/01/17 08:40:57;;;;;;;28.73;4.25;;;7.30;99.90;;;;;;5054399;28;20507;-81
2022/01/17 08:43:24;;;;;;;31.83;5.85;;;7.30;99.90;;;;;;5053978;28;20041;-79
2022/01/17 08:45:50;;;;;;;24.10;3.42;;;7.30;99.90;;;;;;5054026;28;20086;-82
2022/01/17 08:48:16;;;;;;;34.92;5.60;;;7.40;99.90;;;;;;5054196;28;20047;-82
2022/01/17 08:50:43;;;;;;;23.88;4.40;;;7.40;99.90;;;;;;5070540;28;20115;-80
2022/01/17 08:53:10;;;;;;;22.60;4.43;;;7.50;99.90;;;;;;5070969;28;20499;-82
2022/01/17 08:55:37;;;;;;;34.15;5.15;;;7.50;99.90;;;;;;5053512;28;20067;-79
2022/01/17 08:58:04;;;;;;;32.88;5.53;;;7.50;99.90;;;;;;5054185;28;20071;-82
2022/01/17 09:00:33;;;;;;;38.28;5.18;;;7.60;99.90;;;;;;5070587;28;20040;-79
2022/01/17 09:03:02;;;;;;;39.38;4.57;;;7.60;99.90;;;;;;5053059;28;20047;-80
2022/01/17 09:05:29;;;;;;;28.90;4.43;;;7.60;99.90;;;;;;5053596;28;20043;-80
2022/01/17 09:07:55;;;;;;;24.70;4.28;;;7.60;99.90;;;;;;5070802;28;20115;-81
2022/01/17 09:10:21;;;;;;;26.85;5.90;;;7.60;99.90;;;;;;5070476;28;20048;-80
2022/01/17 09:12:47;;;;;;;25.42;4.10;;;7.70;99.90;;;;;;5070603;28;20045;-82
2022/01/17 09:15:13;;;;;;;32.22;5.57;;;7.70;99.90;;;;;;5054281;28;20040;-83
2022/01/17 09:17:39;;;;;;;34.05;5.15;;;7.70;99.90;;;;;;5070500;28;20074;-80
2022/01/17 09:20:06;;;;;;;28.00;5.28;;;7.80;99.90;;;;;;5053784;28;20150;-83
2022/01/17 09:22:32;;;;;;;29.20;4.75;;;7.80;99.90;;;;;;5070000;28;20049;-82
2022/01/17 09:24:58;;;;;;;35.97;5.32;;;7.80;99.90;;;;;;5053835;28;20512;-81
2022/01/17 09:27:25;;;;;;;35.65;6.47;;;7.80;99.90;;;;;;5070146;28;20533;-80
2022/01/17 09:29:51;;;;;;;38.95;4.80;;;7.90;99.90;;;;;;5069978;28;20069;-80
2022/01/17 09:32:17;;;;;;;22.92;4.05;;;7.90;99.90;;;;;;5069938;28;20044;-82
2022/01/17 09:34:43;;;;;;;27.92;5.35;;;8.00;99.90;;;;;;5057156;28;20041;-80
2022/01/17 09:37:10;;;;;;;32.90;5.05;;;8.00;99.90;;;;;;5057451;28;20141;-83
2022/01/17 09:39:37;;;;;;;38.00;6.72;;;8.10;99.90;;;;;;5074113;28;20049;-82
2022/01/17 09:42:08;;;;;;;34.00;5.28;;;8.10;99.90;;;;;;5056900;28;20044;-82
2022/01/17 09:44:35;;;;;;;32.13;5.57;;;8.20;99.90;;;;;;5057790;28;20372;-83
2022/01/17 09:47:08;;;;;;;28.85;6.68;;;8.20;99.90;;;;;;5074135;28;20059;-80
2022/01/17 09:52:13;;;;;;;29.83;5.07;;;8.20;99.90;;;;;;5040139;28;20583;-81
2022/01/17 09:54:40;;;;;;;32.47;6.13;;;8.30;99.90;;;;;;5056919;28;20055;-82
2022/01/17 09:57:07;;;;;;;26.20;5.10;;;8.20;99.90;;;;;;5073379;28;20499;-82
2022/01/17 09:59:34;;;;;;;34.67;5.95;;;8.20;99.90;;;;;;5074277;28;20048;-80
2022/01/17 10:02:00;;;;;;;32.22;6.28;;;8.20;99.90;;;;;;5074531;28;20044;-80
2022/01/17 10:04:26;;;;;;;31.67;6.18;;;8.20;99.90;;;;;;5074079;28;20156;-81
2022/01/17 10:06:57;;;;;;;41.20;6.20;;;8.20;99.90;;;;;;5074250;28;20048;-82
2022/01/17 10:09:25;;;;;;;29.20;5.05;;;8.30;99.90;;;;;;5057388;28;20048;-82
2022/01/17 10:12:23;;;;;;;42.45;5.75;;;8.30;99.90;;;;;;5072447;28;20047;-82
2022/01/17 10:15:03;;;;;;;28.98;4.70;;;8.30;99.90;;;;;;5034103;28;20055;-82
2022/01/17 10:18:01;;;;;;;32.80;5.40;;;8.20;99.90;;;;;;5053046;28;20458;-81
2022/01/17 10:20:32;;;;;;;41.58;6.63;;;8.30;99.90;;;;;;5033421;28;20392;-82
2022/01/17 10:23:57;;;;;;;40.63;5.70;;;8.60;99.90;;;;;;5057496;28;20434;-83
2022/01/17 10:36:47;;;;;;;30.42;6.18;;;8.00;99.90;;;;;;5073083;28;20040;-80
2022/01/17 10:39:13;;;;;;;39.97;7.07;;;8.00;99.90;;;;;;5072334;28;20122;-81
2022/01/17 10:41:38;;;;;;;35.75;5.53;;;8.20;99.90;;;;;;5072805;28;20441;-81
2022/01/17 10:44:05;;;;;;;32.70;4.45;;;8.30;99.90;;;;;;5073303;28;20432;-82
2022/01/17 10:46:31;;;;;;;29.20;5.80;;;8.40;99.90;;;;;;5055941;28;20048;-81
2022/01/17 10:48:58;;;;;;;35.28;5.43;;;8.40;99.90;;;;;;5073396;28;20048;-83
2022/01/17 10:51:33;;;;;;;30.88;4.75;;;8.50;99.90;;;;;;5073338;28;20127;-82
2022/01/17 10:54:09;;;;;;;29.92;5.25;;;8.50;99.90;;;;;;5073282;28;20532;-80
2022/01/17 10:56:47;;;;;;;41.42;7.03;;;8.50;99.90;;;;;;5056729;28;20044;-81
2022/01/17 10:59:29;;;;;;;35.33;7.07;;;8.50;99.90;;;;;;5056615;28;20395;-83
2022/01/17 11:01:54;;;;;;;36.33;6.32;;;8.60;99.90;;;;;;5073394;28;20048;-81
2022/01/17 11:04:34;;;;;;;40.72;6.72;;;8.70;99.90;;;;;;5056293;28;20040;-81
2022/01/17 11:07:05;;;;;;;37.47;6.03;;;8.60;99.90;;;;;;5056290;28;20044;-81
2022/01/17 11:09:43;;;;;;;42.33;7.05;;;8.70;99.90;;;;;;5056215;28;20051;-83
2022/01/17 11:12:14;;;;;;;43.33;7.78;;;8.70;99.90;;;;;;5072694;28;20081;-82
2022/01/17 11:14:41;;;;;;;37.03;7.00;;;8.80;99.90;;;;;;5072866;28;20123;-83
2022/01/17 11:17:35;;;;;;;32.10;5.95;;;8.80;99.90;;;;;;5056029;28;20063;-81
2022/01/17 11:20:06;;;;;;;;;;;8.80;99.90;;;;;;5071665;28;20059;-81
2022/01/17 11:22:41;;;;;;;48.95;7.75;;;8.90;99.90;;;;;;5056394;28;19924;-80
2022/01/17 11:25:09;;;;;;;30.42;5.95;;;8.90;99.90;;;;;;5072769;28;20044;-83
2022/01/17 11:27:36;;;;;;;33.03;5.32;;;9.00;99.90;;;;;;5072497;28;20056;-81
2022/01/17 11:30:03;;;;;;;40.38;5.78;;;9.00;99.90;;;;;;5072236;28;20032;-80
2022/01/17 11:32:29;;;;;;;40.47;7.57;;;9.10;99.90;;;;;;5072452;28;20491;-81
2022/01/17 11:34:57;;;;;;;29.02;6.18;;;9.00;99.90;;;;;;5072451;28;20047;-81
2022/01/17 11:37:25;;;;;;;53.03;9.52;;;8.90;99.90;;;;;;5055743;28;20579;-82
2022/01/17 11:39:54;;;;;;;40.58;7.65;;;9.00;99.90;;;;;;5072212;28;20060;-83
2022/01/17 11:42:41;;;;;;;36.97;6.65;;;9.00;99.90;;;;;;5072125;28;20075;-82
2022/01/17 11:45:32;;;;;;;34.97;5.72;;;8.90;99.90;;;;;;5055813;28;20044;-82
2022/01/17 11:48:05;;;;;;;37.90;6.30;;;9.10;99.90;;;;;;5066814;28;20056;-82
2022/01/17 11:50:35;;;;;;;40.17;8.10;;;9.00;99.90;;;;;;5055278;28;20127;-80
2022/01/17 11:53:23;;;;;;;40.75;6.50;;;8.90;99.90;;;;;;5055459;28;20049;-80
2022/01/17 11:55:50;;;;;;;52.40;9.70;;;8.90;99.90;;;;;;5065047;28;20055;-82
2022/01/17 11:58:19;;;;;;;37.78;7.78;;;8.90;99.90;;;;;;5071725;28;20048;-82
2022/01/17 12:00:46;;;;;;;30.55;6.00;;;9.00;99.90;;;;;;5072004;28;20410;-82
2022/01/17 12:03:20;;;;;;;42.80;5.90;;;8.80;99.90;;;;;;5071859;28;20063;-80
2022/01/17 12:05:46;;;;;;;40.00;7.85;;;8.80;99.90;;;;;;5071675;28;20048;-81
2022/01/17 12:08:16;;;;;;;52.45;7.78;;;9.00;99.90;;;;;;5055223;28;20498;-80
2022/01/17 12:10:53;;;;;;;44.85;8.30;;;9.00;99.90;;;;;;5055133;28;20049;-80
2022/01/17 12:13:24;;;;;;;52.17;7.85;;;9.20;99.90;;;;;;5054921;28;20074;-81
2022/01/17 12:16:23;;;;;;;42.15;8.60;;;9.30;99.90;;;;;;5055059;28;20101;-82
2022/01/17 12:19:03;;;;;;;35.78;6.60;;;9.20;99.90;;;;;;5071755;28;20079;-80
2022/01/17 12:21:39;;;;;;;55.60;8.30;;;9.10;99.90;;;;;;5071580;28;20060;-82
2022/01/17 12:24:17;;;;;;;38.20;8.27;;;8.90;99.90;;;;;;5071464;28;20086;-82
2022/01/17 12:27:03;;;;;;;36.10;6.60;;;8.80;99.90;;;;;;5054800;28;20438;-81
2022/01/17 12:29:35;;;;;;;42.60;7.95;;;8.70;99.90;;;;;;5054614;28;20231;-82
2022/01/17 12:32:01;;;;;;;55.35;8.60;;;8.70;99.90;;;;;;5071360;28;20222;-82
2022/01/17 12:34:27;;;;;;;62.80;8.73;;;8.70;99.90;;;;;;5071362;28;20105;-81
2022/01/17 12:36:58;;;;;;;67.85;11.15;;;8.70;99.90;;;;;;5054889;28;20051;-82
2022/01/17 12:39:28;;;;;;;60.40;7.90;;;8.70;99.90;;;;;;5071337;28;20059;-82
2022/01/17 12:42:04;;;;;;;42.00;7.93;;;8.60;99.90;;;;;;5038322;28;20045;-81
2022/01/17 12:44:32;;;;;;;38.20;7.03;;;8.70;99.90;;;;;;5071362;28;20048;-82
2022/01/17 12:47:03;;;;;;;36.47;5.85;;;8.70;99.90;;;;;;5054791;28;20414;-80
2022/01/17 12:49:33;;;;;;;52.10;9.55;;;8.70;99.90;;;;;;5054674;28;20049;-81
2022/01/17 12:52:00;;;;;;;41.58;7.55;;;8.70;99.90;;;;;;5054548;28;20036;-82
2022/01/17 12:54:33;;;;;;;46.40;7.45;;;8.70;99.90;;;;;;5071518;28;19926;-81
2022/01/17 12:57:01;;;;;;;54.58;9.63;;;8.80;99.90;;;;;;5054619;28;20071;-80
2022/01/17 12:59:27;;;;;;;39.65;6.82;;;8.70;99.90;;;;;;5054593;28;20054;-82
2022/01/17 13:01:58;;;;;;;33.63;7.75;;;8.80;99.90;;;;;;5054556;28;20043;-81
2022/01/17 13:04:25;;;;;;;43.50;7.65;;;8.90;99.90;;;;;;5071304;28;20487;-80
2022/01/17 13:06:52;;;;;;;52.15;8.82;;;9.10;99.90;;;;;;5054590;28;20441;-80
2022/01/17 13:09:28;;;;;;;27.00;7.15;;;9.10;99.90;;;;;;5073584;28;20040;-80
2022/01/17 13:11:57;;;;;;;48.78;8.52;;;9.20;99.90;;;;;;5075567;28;20102;-81
2022/01/17 13:14:24;;;;;;;49.67;9.07;;;9.30;99.90;;;;;;5041958;28;20090;-80
2022/01/17 13:16:51;;;;;;;45.67;8.73;;;9.20;99.90;;;;;;5075002;28;20052;-80
2022/01/17 13:19:19;;;;;;;52.67;8.23;;;9.10;99.90;;;;;;5058417;28;20052;-81
2022/01/17 13:21:46;;;;;;;43.92;8.43;;;9.10;99.90;;;;;;5058304;28;20045;-80
2022/01/17 13:24:35;;;;;;;57.85;9.00;;;9.00;99.90;;;;;;5075384;28;20525;-81